LICCLICR

Guest
Details From LICC - Catania Fontanarossa
To LICR - Reggio Calabria
Flight Number -
Tags generated
Created
Modified
Stats Distance 46 nm / 85 km
Max Altitude 5,100 ft / 1,554 m
Waypoints 3
Social Downloads 15
Likes 0
Share VATSIM

Download

Looking for another format? Having issues loading an existing format? Contact us
Advertisement - Login to hide

Notes

Basic altitude profile: - Ascent Rate: 2500ft/min - Ascent Speed: 250kts - Cruise Altitude: 35000ft - Cruise Speed: 420kts - Descent Rate: 1500ft/min - Descent Speed: 250kts Options: - Use NATs: yes - Use PACOTS: yes - Use low airways: yes - Use high airways: yes

Route

LICC DIVAR LICR

ID Type Via Altitude Latitude Longitude Leg Dist Tot Dist Heading (true) Name
O LICC APT - 0 ft / 0 m 37.46678˚ 15.06640˚ - 0 nm - Catania Fontanarossa
DIVAR FIX - 5,100 ft / 1,554 m 37.77167˚ 15.31222˚ 21 nm 21 nm 32° / 33° -
O LICR APT - 0 ft / 0 m 38.07257˚ 15.64932˚ 24 nm 45 nm 41° / 42° Reggio Calabria

Altitude Profile

Advertisement - Login to hide

LICC

Details ICAO LICC (CTA)
Name Catania Fontanarossa
Region Italy
Timezone Europe/Rome (UTC+1.0)
Stats Elevation 39 ft / 12 m (AMSL)
Location 37.466779° 15.066401°
Runways 1
Magnetic Variation 3.216° E

METAR

LICC 172320Z 25009KT CAVOK 04/02 Q1018

Decode

TAF

TAF LICC 171700Z 1718/1818 28012KT 9999 SCT030 BECMG 1811/1813 09010KT BECMG 1816/1818 26008KT

Decode

Departure Runways

ID Width Length Bearing (true) Bearing (mag) Surface Threshold Offset Overrun Length
08 148 ft / 45 m 7,985 ft / 2,434 m 83.94° 80.72° Asphalt 312 ft / 95 m 0 ft / 0 m
26 148 ft / 45 m 7,985 ft / 2,434 m 263.95° 260.73° Asphalt 279 ft / 85 m 0 ft / 0 m

LICR

Details ICAO LICR (REG)
Name Reggio Calabria
Region Italy
Timezone Europe/Rome (UTC+1.0)
Stats Elevation 96 ft / 29 m (AMSL)
Location 38.072573° 15.649317°
Runways 2
Magnetic Variation 3.346° E

METAR

LICR 172250Z 06006KT 9999 SCT060 10/04 Q1018

Decode

TAF

TAF LICR 172304Z 1718/1818 CNL

Decode

Destination Runways

ID Width Length Bearing (true) Bearing (mag) Surface Threshold Offset Overrun Length
11 148 ft / 45 m 6,123 ft / 1,866 m 111.76° 108.41° Asphalt 203 ft / 62 m 0 ft / 0 m
15 148 ft / 45 m 6,640 ft / 2,024 m 151.90° 148.55° Asphalt 784 ft / 239 m 0 ft / 0 m
29 148 ft / 45 m 6,123 ft / 1,866 m 291.77° 288.42° Asphalt 157 ft / 48 m 0 ft / 0 m
33 148 ft / 45 m 6,640 ft / 2,024 m 331.90° 328.55° Asphalt 659 ft / 201 m 0 ft / 0 m

Approach Navaids

Runway Type Ident Frequency Range Bearing (true) Bearing (mag) Slope Elevation
33 Localiser REG 109.30 MHz 18 nm / 33 km 19.16° 15.82° - 95 ft / 29 m (AMSL)

Popular Alternatives